sensor_id;sensor_type;location;lat;lon;timestamp;pressure;altitude;pressure_sealevel;temperature;humidity
10466;BME280;5280;42.600;23.556;2023-02-12T00:01:13;94349.72;;;-1.59;61.13
10466;BME280;5280;42.600;23.556;2023-02-12T00:03:41;94351.22;;;-1.46;60.54
10466;BME280;5280;42.600;23.556;2023-02-12T00:06:11;94352.09;;;-1.45;60.83
10466;BME280;5280;42.600;23.556;2023-02-12T00:08:38;94357.22;;;-1.44;60.32
10466;BME280;5280;42.600;23.556;2023-02-12T00:11:10;94358.00;;;-1.39;59.48
10466;BME280;5280;42.600;23.556;2023-02-12T00:13:37;94363.16;;;-1.37;60.43
10466;BME280;5280;42.600;23.556;2023-02-12T00:16:07;94319.66;;;-1.69;60.13
10466;BME280;5280;42.600;23.556;2023-02-12T00:18:35;94370.91;;;-1.36;61.09
10466;BME280;5280;42.600;23.556;2023-02-12T00:21:02;94287.16;;;-1.85;59.61
10466;BME280;5280;42.600;23.556;2023-02-12T00:23:31;94350.28;;;-1.43;60.19
10466;BME280;5280;42.600;23.556;2023-02-12T00:25:57;94347.72;;;-1.43;60.15
10466;BME280;5280;42.600;23.556;2023-02-12T00:28:24;94367.38;;;-1.32;61.12
10466;BME280;5280;42.600;23.556;2023-02-12T00:30:51;94339.88;;;-1.40;59.98
10466;BME280;5280;42.600;23.556;2023-02-12T00:33:18;94358.56;;;-1.23;59.84
10466;BME280;5280;42.600;23.556;2023-02-12T00:35:44;94361.13;;;-1.21;60.37
10466;BME280;5280;42.600;23.556;2023-02-12T00:38:11;94296.34;;;-1.69;60.48
10466;BME280;5280;42.600;23.556;2023-02-12T00:40:39;94348.22;;;-1.24;61.14
10466;BME280;5280;42.600;23.556;2023-02-12T00:43:06;94349.03;;;-1.22;61.26
10466;BME280;5280;42.600;23.556;2023-02-12T00:45:33;94346.47;;;-1.24;61.99
10466;BME280;5280;42.600;23.556;2023-02-12T00:48:02;94345.56;;;-1.20;61.62
10466;BME280;5280;42.600;23.556;2023-02-12T00:50:29;94337.00;;;-1.25;62.42
10466;BME280;5280;42.600;23.556;2023-02-12T00:52:56;94309.75;;;-1.46;62.50
10466;BME280;5280;42.600;23.556;2023-02-12T00:55:22;94330.16;;;-1.29;62.53
10466;BME280;5280;42.600;23.556;2023-02-12T00:57:50;94335.25;;;-1.24;62.65
10466;BME280;5280;42.600;23.556;2023-02-12T01:00:17;94336.06;;;-1.21;63.43
10466;BME280;5280;42.600;23.556;2023-02-12T01:02:44;94314.59;;;-1.29;65.36
10466;BME280;5280;42.600;23.556;2023-02-12T01:05:11;94289.78;;;-1.41;63.56
10466;BME280;5280;42.600;23.556;2023-02-12T01:07:38;94306.00;;;-1.31;63.28
10466;BME280;5280;42.600;23.556;2023-02-12T01:10:06;94278.75;;;-1.50;66.91
10466;BME280;5280;42.600;23.556;2023-02-12T01:12:33;94306.88;;;-1.31;64.82
10466;BME280;5280;42.600;23.556;2023-02-12T01:15:02;94307.75;;;-1.33;66.30
10466;BME280;5280;42.600;23.556;2023-02-12T01:17:29;94305.06;;;-1.27;64.50
10466;BME280;5280;42.600;23.556;2023-02-12T01:19:56;94311.19;;;-1.31;65.83
10466;BME280;5280;42.600;23.556;2023-02-12T01:22:24;94317.28;;;-1.34;64.37
10466;BME280;5280;42.600;23.556;2023-02-12T01:24:51;94308.78;;;-1.40;63.92
10466;BME280;5280;42.600;23.556;2023-02-12T01:27:17;94323.31;;;-1.32;63.83
10466;BME280;5280;42.600;23.556;2023-02-12T01:29:44;94320.72;;;-1.32;64.62
10466;BME280;5280;42.600;23.556;2023-02-12T01:32:13;94303.63;;;-1.43;64.93
10466;BME280;5280;42.600;23.556;2023-02-12T01:34:39;94323.41;;;-1.38;65.09
10466;BME280;5280;42.600;23.556;2023-02-12T01:37:06;94300.16;;;-1.42;65.66
10466;BME280;5280;42.600;23.556;2023-02-12T01:39:33;94320.06;;;-1.44;66.06
10466;BME280;5280;42.600;23.556;2023-02-12T01:42:02;94322.63;;;-1.41;66.04
10466;BME280;5280;42.600;23.556;2023-02-12T01:44:33;94305.38;;;-1.44;65.26
10466;BME280;5280;42.600;23.556;2023-02-12T01:47:01;94311.38;;;-1.40;65.52
10466;BME280;5280;42.600;23.556;2023-02-12T01:49:34;94285.78;;;-1.58;68.76
10466;BME280;5280;42.600;23.556;2023-02-12T01:52:06;94302.00;;;-1.49;68.17
10466;BME280;5280;42.600;23.556;2023-02-12T01:54:34;94296.03;;;-1.51;66.92
10466;BME280;5280;42.600;23.556;2023-02-12T01:57:04;94288.28;;;-1.54;66.80
10466;BME280;5280;42.600;23.556;2023-02-12T01:59:32;94287.50;;;-1.57;66.78
10466;BME280;5280;42.600;23.556;2023-02-12T02:02:01;94278.88;;;-1.59;67.05
10466;BME280;5280;42.600;23.556;2023-02-12T02:04:32;94275.56;;;-1.64;66.97
10466;BME280;5280;42.600;23.556;2023-02-12T02:07:03;94289.31;;;-1.62;67.06
10466;BME280;5280;42.600;23.556;2023-02-12T02:09:34;94279.75;;;-1.59;67.72
10466;BME280;5280;42.600;23.556;2023-02-12T02:12:02;94255.78;;;-1.70;67.26
10466;BME280;5280;42.600;23.556;2023-02-12T02:14:47;94275.50;;;-1.61;67.22
10466;BME280;5280;42.600;23.556;2023-02-12T02:17:34;94284.25;;;-1.68;67.64
10466;BME280;5280;42.600;23.556;2023-02-12T02:20:50;94280.66;;;-1.61;67.20
10466;BME280;5280;42.600;23.556;2023-02-12T02:23:38;94297.94;;;-1.60;67.36
10466;BME280;5280;42.600;23.556;2023-02-12T02:29:36;94294.41;;;-1.56;70.09
10466;BME280;5280;42.600;23.556;2023-02-12T02:32:11;94286.63;;;-1.58;72.39
10466;BME280;5280;42.600;23.556;2023-02-12T02:34:46;94269.53;;;-1.65;74.01
10466;BME280;5280;42.600;23.556;2023-02-12T02:37:17;94288.44;;;-1.61;74.50
10466;BME280;5280;42.600;23.556;2023-02-12T02:39:49;94289.97;;;-1.50;75.27
10466;BME280;5280;42.600;23.556;2023-02-12T02:42:25;94287.38;;;-1.51;75.55
10466;BME280;5280;42.600;23.556;2023-02-12T02:44:54;94289.22;;;-1.56;74.10
10466;BME280;5280;42.600;23.556;2023-02-12T02:47:30;94286.72;;;-1.61;72.82
10466;BME280;5280;42.600;23.556;2023-02-12T02:50:03;94240.91;;;-2.05;73.07
10466;BME280;5280;42.600;23.556;2023-02-12T02:52:35;94278.97;;;-1.64;74.54
10466;BME280;5280;42.600;23.556;2023-02-12T02:55:06;94285.78;;;-1.58;75.41
10466;BME280;5280;42.600;23.556;2023-02-12T02:57:38;94295.53;;;-1.69;73.80
10466;BME280;5280;42.600;23.556;2023-02-12T03:00:13;94295.44;;;-1.65;74.95
10466;BME280;5280;42.600;23.556;2023-02-12T03:02:45;94291.16;;;-1.67;74.79
10466;BME280;5280;42.600;23.556;2023-02-12T03:05:18;94291.75;;;-1.53;75.62
10466;BME280;5280;42.600;23.556;2023-02-12T03:07:49;94302.16;;;-1.56;76.58
10466;BME280;5280;42.600;23.556;2023-02-12T03:10:19;94288.56;;;-1.67;77.92
10466;BME280;5280;42.600;23.556;2023-02-12T03:12:53;94296.22;;;-1.61;76.45
10466;BME280;5280;42.600;23.556;2023-02-12T03:15:26;94290.25;;;-1.65;75.17
10466;BME280;5280;42.600;23.556;2023-02-12T03:18:00;94293.81;;;-1.70;74.45
10466;BME280;5280;42.600;23.556;2023-02-12T03:20:32;94286.91;;;-1.71;73.96
10466;BME280;5280;42.600;23.556;2023-02-12T03:23:04;94295.44;;;-1.66;70.67
10466;BME280;5280;42.600;23.556;2023-02-12T03:25:35;94289.44;;;-1.68;70.84
10466;BME280;5280;42.600;23.556;2023-02-12T03:28:08;94289.31;;;-1.62;69.81
10466;BME280;5280;42.600;23.556;2023-02-12T03:30:41;94291.03;;;-1.61;70.14
10466;BME280;5280;42.600;23.556;2023-02-12T03:33:19;94292.75;;;-1.60;70.68
10466;BME280;5280;42.600;23.556;2023-02-12T03:35:54;94293.53;;;-1.55;70.18
10466;BME280;5280;42.600;23.556;2023-02-12T03:38:33;94281.63;;;-1.65;69.90
10466;BME280;5280;42.600;23.556;2023-02-12T03:41:06;94285.69;;;-1.52;69.66
10466;BME280;5280;42.600;23.556;2023-02-12T03:43:41;94286.34;;;-1.41;71.59
10466;BME280;5280;42.600;23.556;2023-02-12T03:46:16;94266.34;;;-1.36;71.90
10466;BME280;5280;42.600;23.556;2023-02-12T03:48:55;94264.44;;;-1.26;70.98
10466;BME280;5280;42.600;23.556;2023-02-12T03:51:28;94289.56;;;-1.30;71.13
10466;BME280;5280;42.600;23.556;2023-02-12T03:53:56;94280.09;;;-1.31;70.31
10466;BME280;5280;42.600;23.556;2023-02-12T03:56:27;94284.44;;;-1.33;70.27
10466;BME280;5280;42.600;23.556;2023-02-12T03:58:57;94272.53;;;-1.43;70.08
10466;BME280;5280;42.600;23.556;2023-02-12T04:01:24;94288.53;;;-1.21;70.11
10466;BME280;5280;42.600;23.556;2023-02-12T04:03:54;94281.72;;;-1.27;72.82
10466;BME280;5280;42.600;23.556;2023-02-12T04:06:22;94292.78;;;-1.19;73.35
10466;BME280;5280;42.600;23.556;2023-02-12T04:08:51;94286.69;;;-1.16;73.31
10466;BME280;5280;42.600;23.556;2023-02-12T04:11:25;94269.53;;;-1.22;75.12
10466;BME280;5280;42.600;23.556;2023-02-12T04:14:07;94282.25;;;-1.10;75.71
10466;BME280;5280;42.600;23.556;2023-02-12T04:16:44;94286.53;;;-1.09;74.91
10466;BME280;5280;42.600;23.556;2023-02-12T04:19:19;94280.44;;;-1.06;76.62
10466;BME280;5280;42.600;23.556;2023-02-12T04:21:58;94271.03;;;-1.12;77.08
10466;BME280;5280;42.600;23.556;2023-02-12T04:24:36;94289.97;;;-1.07;75.58
10466;BME280;5280;42.600;23.556;2023-02-12T04:27:11;94285.59;;;-1.05;72.94
10466;BME280;5280;42.600;23.556;2023-02-12T04:29:46;94241.34;;;-1.39;71.59
10466;BME280;5280;42.600;23.556;2023-02-12T04:32:17;94284.00;;;-1.10;75.18
10466;BME280;5280;42.600;23.556;2023-02-12T04:34:51;94279.13;;;-1.27;75.15
10466;BME280;5280;42.600;23.556;2023-02-12T04:37:25;94289.53;;;-1.28;72.20
10466;BME280;5280;42.600;23.556;2023-02-12T04:39:55;94292.94;;;-1.25;72.44
10466;BME280;5280;42.600;23.556;2023-02-12T04:42:24;94293.75;;;-1.24;70.91
10466;BME280;5280;42.600;23.556;2023-02-12T04:44:51;94291.34;;;-1.34;70.57
10466;BME280;5280;42.600;23.556;2023-02-12T04:47:18;94288.75;;;-1.32;72.04
10466;BME280;5280;42.600;23.556;2023-02-12T04:49:44;94294.69;;;-1.27;71.27
10466;BME280;5280;42.600;23.556;2023-02-12T04:52:12;94304.94;;;-1.21;71.45
10466;BME280;5280;42.600;23.556;2023-02-12T04:54:39;94288.66;;;-1.27;72.44
10466;BME280;5280;42.600;23.556;2023-02-12T04:57:07;94293.63;;;-1.17;69.35
10466;BME280;5280;42.600;23.556;2023-02-12T04:59:34;94279.91;;;-1.23;70.01
10466;BME280;5280;42.600;23.556;2023-02-12T05:02:01;94297.72;;;-1.05;70.12
10466;BME280;5280;42.600;23.556;2023-02-12T05:04:28;94270.19;;;-1.12;69.60
10466;BME280;5280;42.600;23.556;2023-02-12T05:06:57;94275.28;;;-1.08;69.71
10466;BME280;5280;42.600;23.556;2023-02-12T05:09:25;94299.28;;;-0.98;69.99
10466;BME280;5280;42.600;23.556;2023-02-12T05:11:52;94273.41;;;-1.01;70.77
10466;BME280;5280;42.600;23.556;2023-02-12T05:14:19;94291.41;;;-0.94;70.19
10466;BME280;5280;42.600;23.556;2023-02-12T05:16:46;94296.50;;;-0.89;69.96
10466;BME280;5280;42.600;23.556;2023-02-12T05:19:13;94289.50;;;-0.85;69.15
10466;BME280;5280;42.600;23.556;2023-02-12T05:21:40;94293.72;;;-0.80;70.18
10466;BME280;5280;42.600;23.556;2023-02-12T05:24:07;94295.59;;;-0.88;68.70
10466;BME280;5280;42.600;23.556;2023-02-12T05:26:36;94305.84;;;-0.80;68.75
10466;BME280;5280;42.600;23.556;2023-02-12T05:29:02;94298.94;;;-0.81;69.26
10466;BME280;5280;42.600;23.556;2023-02-12T05:31:29;94309.19;;;-0.75;69.74
10466;BME280;5280;42.600;23.556;2023-02-12T05:33:56;94313.34;;;-0.68;69.42
10466;BME280;5280;42.600;23.556;2023-02-12T05:36:23;94308.28;;;-0.74;70.66
10466;BME280;5280;42.600;23.556;2023-02-12T05:38:51;94322.88;;;-0.69;69.46
10466;BME280;5280;42.600;23.556;2023-02-12T05:41:21;94332.34;;;-0.66;70.92
10466;BME280;5280;42.600;23.556;2023-02-12T05:43:50;94333.09;;;-0.61;70.47
10466;BME280;5280;42.600;23.556;2023-02-12T05:46:18;94343.50;;;-0.63;70.37
10466;BME280;5280;42.600;23.556;2023-02-12T05:48:45;94349.66;;;-0.67;71.86
10466;BME280;5280;42.600;23.556;2023-02-12T05:51:14;94339.50;;;-0.77;75.87
10466;BME280;5280;42.600;23.556;2023-02-12T05:53:41;94358.34;;;-0.69;81.17
10466;BME280;5280;42.600;23.556;2023-02-12T05:56:10;94356.69;;;-0.73;83.36
10466;BME280;5280;42.600;23.556;2023-02-12T05:58:37;94355.06;;;-0.77;84.60
10466;BME280;5280;42.600;23.556;2023-02-12T06:01:10;94340.59;;;-0.89;84.49
10466;BME280;5280;42.600;23.556;2023-02-12T06:03:38;94337.94;;;-0.86;84.62
10466;BME280;5280;42.600;23.556;2023-02-12T06:06:05;94342.09;;;-0.77;83.58
10466;BME280;5280;42.600;23.556;2023-02-12T06:08:32;94335.09;;;-0.74;81.72
10466;BME280;5280;42.600;23.556;2023-02-12T06:11:00;94360.66;;;-0.56;81.63
10466;BME280;5280;42.600;23.556;2023-02-12T06:13:27;94356.25;;;-0.51;81.61
10466;BME280;5280;42.600;23.556;2023-02-12T06:15:54;94338.09;;;-0.52;80.93
10466;BME280;5280;42.600;23.556;2023-02-12T06:18:23;94355.16;;;-0.40;80.73
10466;BME280;5280;42.600;23.556;2023-02-12T06:20:50;94356.69;;;-0.33;80.94
10466;BME280;5280;42.600;23.556;2023-02-12T06:23:18;94362.63;;;-0.27;79.89
10466;BME280;5280;42.600;23.556;2023-02-12T06:25:45;94356.56;;;-0.27;81.15
10466;BME280;5280;42.600;23.556;2023-02-12T06:28:12;94363.34;;;-0.20;82.66
10466;BME280;5280;42.600;23.556;2023-02-12T06:30:39;94362.50;;;-0.21;83.60
10466;BME280;5280;42.600;23.556;2023-02-12T06:33:05;94358.97;;;-0.20;83.79
10466;BME280;5280;42.600;23.556;2023-02-12T06:35:35;94363.28;;;-0.19;84.46
10466;BME280;5280;42.600;23.556;2023-02-12T06:38:02;94352.09;;;-0.21;84.17
10466;BME280;5280;42.600;23.556;2023-02-12T06:40:29;94359.69;;;-0.12;83.49
10466;BME280;5280;42.600;23.556;2023-02-12T06:42:56;94354.59;;;-0.16;84.49
10466;BME280;5280;42.600;23.556;2023-02-12T06:45:22;94355.38;;;-0.13;85.17
10466;BME280;5280;42.600;23.556;2023-02-12T06:47:49;94357.09;;;-0.12;85.21
10466;BME280;5280;42.600;23.556;2023-02-12T06:50:16;94362.03;;;-0.01;85.11
10466;BME280;5280;42.600;23.556;2023-02-12T06:52:44;94361.97;;;0.00;84.36
10466;BME280;5280;42.600;23.556;2023-02-12T06:55:11;94356.88;;;-0.03;85.47
10466;BME280;5280;42.600;23.556;2023-02-12T06:57:38;94367.13;;;0.04;85.00
10466;BME280;5280;42.600;23.556;2023-02-12T07:00:06;94360.28;;;-0.01;84.90
10466;BME280;5280;42.600;23.556;2023-02-12T07:02:33;94342.66;;;-0.25;87.46
10466;BME280;5280;42.600;23.556;2023-02-12T07:05:00;94290.59;;;-0.57;89.06
10466;BME280;5280;42.600;23.556;2023-02-12T07:07:27;94362.03;;;-0.01;89.40
10466;BME280;5280;42.600;23.556;2023-02-12T07:09:55;94371.53;;;0.00;89.76
10466;BME280;5280;42.600;23.556;2023-02-12T07:12:22;94378.63;;;-0.08;89.85
10466;BME280;5280;42.600;23.556;2023-02-12T07:14:48;94370.88;;;-0.10;90.68
10466;BME280;5280;42.600;23.556;2023-02-12T07:17:15;94376.03;;;-0.08;91.10
10466;BME280;5280;42.600;23.556;2023-02-12T07:19:42;94364.84;;;-0.10;91.96
10466;BME280;5280;42.600;23.556;2023-02-12T07:22:09;94302.00;;;-0.64;92.70
10466;BME280;5280;42.600;23.556;2023-02-12T07:24:36;94357.22;;;-0.18;93.27
10466;BME280;5280;42.600;23.556;2023-02-12T07:27:04;94360.69;;;-0.19;92.71
10466;BME280;5280;42.600;23.556;2023-02-12T07:29:31;94373.53;;;-0.11;92.55
10466;BME280;5280;42.600;23.556;2023-02-12T07:31:59;94368.47;;;-0.17;93.25
10466;BME280;5280;42.600;23.556;2023-02-12T07:34:26;94366.53;;;-0.09;93.59
10466;BME280;5280;42.600;23.556;2023-02-12T07:36:52;94359.78;;;-0.16;92.88
10466;BME280;5280;42.600;23.556;2023-02-12T07:39:19;94364.91;;;-0.13;92.56
10466;BME280;5280;42.600;23.556;2023-02-12T07:41:46;94364.09;;;-0.15;92.77
10466;BME280;5280;42.600;23.556;2023-02-12T07:44:14;94372.56;;;-0.07;92.64
10466;BME280;5280;42.600;23.556;2023-02-12T07:46:43;94378.41;;;0.01;92.85
10466;BME280;5280;42.600;23.556;2023-02-12T07:49:11;94377.88;;;-0.12;93.35
10466;BME280;5280;42.600;23.556;2023-02-12T07:51:39;94388.81;;;0.01;93.08
10466;BME280;5280;42.600;23.556;2023-02-12T07:54:06;94381.84;;;0.03;92.26
10466;BME280;5280;42.600;23.556;2023-02-12T07:56:35;94393.13;;;0.02;93.03
10466;BME280;5280;42.600;23.556;2023-02-12T07:59:05;94399.91;;;0.09;93.13
10466;BME280;5280;42.600;23.556;2023-02-12T08:01:35;94387.91;;;0.04;93.35
10466;BME280;5280;42.600;23.556;2023-02-12T08:04:04;94377.53;;;0.02;93.45
10466;BME280;5280;42.600;23.556;2023-02-12T08:06:34;94396.22;;;0.18;93.73
10466;BME280;5280;42.600;23.556;2023-02-12T08:09:03;94399.94;;;0.08;93.93
10466;BME280;5280;42.600;23.556;2023-02-12T08:11:30;94408.56;;;0.10;94.05
10466;BME280;5280;42.600;23.556;2023-02-12T08:13:58;94408.47;;;0.13;93.79
10466;BME280;5280;42.600;23.556;2023-02-12T08:16:26;94388.66;;;0.09;93.34
10466;BME280;5280;42.600;23.556;2023-02-12T08:18:55;94364.97;;;-0.16;92.91
10466;BME280;5280;42.600;23.556;2023-02-12T08:21:24;94406.00;;;0.08;93.65
10466;BME280;5280;42.600;23.556;2023-02-12T08:23:52;94408.59;;;0.08;93.75
10466;BME280;5280;42.600;23.556;2023-02-12T08:26:21;94402.66;;;0.02;93.30
10466;BME280;5280;42.600;23.556;2023-02-12T08:28:50;94387.25;;;-0.06;93.57
10466;BME280;5280;42.600;23.556;2023-02-12T08:31:19;94388.19;;;-0.09;94.21
10466;BME280;5280;42.600;23.556;2023-02-12T08:33:48;94406.03;;;0.05;93.76
10466;BME280;5280;42.600;23.556;2023-02-12T08:36:19;94394.19;;;-0.07;94.10
10466;BME280;5280;42.600;23.556;2023-02-12T08:38:47;94418.25;;;0.02;94.38
10466;BME280;5280;42.600;23.556;2023-02-12T08:41:15;94418.13;;;0.08;94.59
10466;BME280;5280;42.600;23.556;2023-02-12T08:43:44;94412.94;;;0.06;94.07
10466;BME280;5280;42.600;23.556;2023-02-12T08:46:12;94414.66;;;0.07;94.49
10466;BME280;5280;42.600;23.556;2023-02-12T08:48:41;94421.56;;;0.08;94.65
10466;BME280;5280;42.600;23.556;2023-02-12T08:51:09;94420.72;;;0.08;94.46
10466;BME280;5280;42.600;23.556;2023-02-12T08:53:39;94386.66;;;-0.19;93.94
10466;BME280;5280;42.600;23.556;2023-02-12T08:56:07;94394.53;;;-0.20;94.56
10466;BME280;5280;42.600;23.556;2023-02-12T08:58:35;94421.69;;;0.04;95.91
10466;BME280;5280;42.600;23.556;2023-02-12T09:01:02;94424.16;;;0.10;94.67
10466;BME280;5280;42.600;23.556;2023-02-12T09:03:29;94424.72;;;0.22;94.16
10466;BME280;5280;42.600;23.556;2023-02-12T09:05:56;94426.00;;;0.40;94.58
10466;BME280;5280;42.600;23.556;2023-02-12T09:08:23;94416.28;;;0.48;93.50
10466;BME280;5280;42.600;23.556;2023-02-12T09:10:55;94440.84;;;0.72;92.52
10466;BME280;5280;42.600;23.556;2023-02-12T09:13:23;94437.09;;;0.83;91.64
10466;BME280;5280;42.600;23.556;2023-02-12T09:15:50;94441.19;;;0.92;91.04
10466;BME280;5280;42.600;23.556;2023-02-12T09:18:17;94436.00;;;0.92;91.64
10466;BME280;5280;42.600;23.556;2023-02-12T09:20:44;94436.19;;;0.84;91.03
10466;BME280;5280;42.600;23.556;2023-02-12T09:23:12;94448.97;;;0.94;91.41
10466;BME280;5280;42.600;23.556;2023-02-12T09:25:40;94446.38;;;0.94;90.67
10466;BME280;5280;42.600;23.556;2023-02-12T09:28:10;94444.50;;;0.99;90.84
10466;BME280;5280;42.600;23.556;2023-02-12T09:30:38;94395.88;;;0.67;91.64
10466;BME280;5280;42.600;23.556;2023-02-12T09:33:06;94459.16;;;1.03;91.19
10466;BME280;5280;42.600;23.556;2023-02-12T09:35:33;94439.41;;;0.94;90.52
10466;BME280;5280;42.600;23.556;2023-02-12T09:38:00;94455.69;;;1.02;90.02
10466;BME280;5280;42.600;23.556;2023-02-12T09:40:31;94413.44;;;0.93;90.97
10466;BME280;5280;42.600;23.556;2023-02-12T09:43:12;94429.75;;;0.99;90.27
10466;BME280;5280;42.600;23.556;2023-02-12T09:45:46;94446.75;;;1.12;90.47
10466;BME280;5280;42.600;23.556;2023-02-12T09:48:47;94449.13;;;1.20;90.25
10466;BME280;5280;42.600;23.556;2023-02-12T09:51:19;94407.00;;;1.06;89.53
10466;BME280;5280;42.600;23.556;2023-02-12T09:53:48;94437.66;;;1.27;91.77
10466;BME280;5280;42.600;23.556;2023-02-12T09:56:16;94443.22;;;1.46;90.39
10466;BME280;5280;42.600;23.556;2023-02-12T09:58:48;94453.19;;;1.62;88.92
10466;BME280;5280;42.600;23.556;2023-02-12T10:01:19;94450.69;;;1.59;90.13
10466;BME280;5280;42.600;23.556;2023-02-12T10:03:47;94464.63;;;1.57;88.39
10466;BME280;5280;42.600;23.556;2023-02-12T10:06:16;94381.78;;;1.08;88.26
10466;BME280;5280;42.600;23.556;2023-02-12T10:09:06;94448.50;;;1.44;88.64
10466;BME280;5280;42.600;23.556;2023-02-12T10:11:45;94442.59;;;1.38;89.75
10466;BME280;5280;42.600;23.556;2023-02-12T10:14:37;94432.34;;;1.32;89.99
10466;BME280;5280;42.600;23.556;2023-02-12T10:17:16;94446.44;;;1.55;89.93
10466;BME280;5280;42.600;23.556;2023-02-12T10:20:04;94443.69;;;1.60;89.16
10466;BME280;5280;42.600;23.556;2023-02-12T10:22:43;94461.63;;;1.70;88.61
10466;BME280;5280;42.600;23.556;2023-02-12T10:25:21;94407.06;;;1.35;87.81
10466;BME280;5280;42.600;23.556;2023-02-12T10:27:51;94463.44;;;1.68;88.65
10466;BME280;5280;42.600;23.556;2023-02-12T10:30:21;94426.94;;;1.39;89.24
10466;BME280;5280;42.600;23.556;2023-02-12T10:32:52;94454.25;;;1.85;87.98
10466;BME280;5280;42.600;23.556;2023-02-12T10:35:21;94424.34;;;1.68;87.39
10466;BME280;5280;42.600;23.556;2023-02-12T10:37:55;94462.81;;;1.90;87.74
10466;BME280;5280;42.600;23.556;2023-02-12T10:40:24;94465.94;;;2.02;88.08
10466;BME280;5280;42.600;23.556;2023-02-12T10:42:55;94458.13;;;2.01;88.47
10466;BME280;5280;42.600;23.556;2023-02-12T10:45:28;94467.31;;;2.14;87.29
10466;BME280;5280;42.600;23.556;2023-02-12T10:48:05;94472.16;;;2.26;87.12
10466;BME280;5280;42.600;23.556;2023-02-12T10:50:40;94401.97;;;1.91;85.99
10466;BME280;5280;42.600;23.556;2023-02-12T10:53:16;94457.50;;;2.22;85.11
10466;BME280;5280;42.600;23.556;2023-02-12T10:55:43;94463.63;;;2.21;85.41
10466;BME280;5280;42.600;23.556;2023-02-12T10:58:19;94461.25;;;2.13;87.44
10466;BME280;5280;42.600;23.556;2023-02-12T11:00:55;94467.63;;;2.33;87.77
10466;BME280;5280;42.600;23.556;2023-02-12T11:03:27;94465.75;;;2.36;85.79
10466;BME280;5280;42.600;23.556;2023-02-12T11:05:54;94457.13;;;2.34;85.28
10466;BME280;5280;42.600;23.556;2023-02-12T11:08:31;94461.44;;;2.35;85.35
10466;BME280;5280;42.600;23.556;2023-02-12T11:11:03;94470.16;;;2.34;85.50
10466;BME280;5280;42.600;23.556;2023-02-12T11:13:35;94472.88;;;2.31;84.86
10466;BME280;5280;42.600;23.556;2023-02-12T11:16:04;94464.16;;;2.32;85.45
10466;BME280;5280;42.600;23.556;2023-02-12T11:18:34;94470.13;;;2.36;86.14
10466;BME280;5280;42.600;23.556;2023-02-12T11:21:04;94460.41;;;2.41;85.78
10466;BME280;5280;42.600;23.556;2023-02-12T11:23:33;94465.44;;;2.47;85.63
10466;BME280;5280;42.600;23.556;2023-02-12T11:26:02;94462.88;;;2.45;84.52
10466;BME280;5280;42.600;23.556;2023-02-12T11:28:30;94462.00;;;2.45;84.28
10466;BME280;5280;42.600;23.556;2023-02-12T11:30:59;94460.91;;;2.53;83.08
10466;BME280;5280;42.600;23.556;2023-02-12T11:33:30;94450.47;;;2.53;83.29
10466;BME280;5280;42.600;23.556;2023-02-12T11:36:01;94463.69;;;2.47;82.91
10466;BME280;5280;42.600;23.556;2023-02-12T11:38:32;94456.72;;;2.48;83.06
10466;BME280;5280;42.600;23.556;2023-02-12T11:41:04;94465.47;;;2.45;83.02
10466;BME280;5280;42.600;23.556;2023-02-12T11:43:34;94468.94;;;2.46;82.87
10466;BME280;5280;42.600;23.556;2023-02-12T11:46:04;94473.22;;;2.48;83.93
10466;BME280;5280;42.600;23.556;2023-02-12T11:48:36;94473.31;;;2.45;84.13
10466;BME280;5280;42.600;23.556;2023-02-12T11:51:05;94474.91;;;2.49;82.76
10466;BME280;5280;42.600;23.556;2023-02-12T11:53:36;94419.44;;;2.16;83.65
10466;BME280;5280;42.600;23.556;2023-02-12T11:56:06;94479.06;;;2.56;83.06
10466;BME280;5280;42.600;23.556;2023-02-12T11:58:33;94462.72;;;2.50;83.16
10466;BME280;5280;42.600;23.556;2023-02-12T12:01:04;94462.00;;;2.45;83.33
10466;BME280;5280;42.600;23.556;2023-02-12T12:03:40;94477.66;;;2.45;82.92
10466;BME280;5280;42.600;23.556;2023-02-12T12:06:24;94477.91;;;2.37;83.17
10466;BME280;5280;42.600;23.556;2023-02-12T12:08:59;94474.59;;;2.32;84.18
10466;BME280;5280;42.600;23.556;2023-02-12T12:11:33;94458.22;;;2.27;84.53
10466;BME280;5280;42.600;23.556;2023-02-12T12:14:07;94444.75;;;2.13;85.45
10466;BME280;5280;42.600;23.556;2023-02-12T12:16:38;94480.53;;;2.37;85.73
10466;BME280;5280;42.600;23.556;2023-02-12T12:19:31;94469.13;;;2.40;85.56
10466;BME280;5280;42.600;23.556;2023-02-12T12:22:25;94453.72;;;2.32;85.06
10466;BME280;5280;42.600;23.556;2023-02-12T12:24:57;94479.41;;;2.44;84.97
10466;BME280;5280;42.600;23.556;2023-02-12T12:27:32;94477.63;;;2.46;85.66
10466;BME280;5280;42.600;23.556;2023-02-12T12:30:22;94463.91;;;2.40;85.62
10466;BME280;5280;42.600;23.556;2023-02-12T12:32:51;94476.59;;;2.52;84.17
10466;BME280;5280;42.600;23.556;2023-02-12T12:35:27;94490.50;;;2.52;84.61
10466;BME280;5280;42.600;23.556;2023-02-12T12:38:01;94487.03;;;2.52;84.77
10466;BME280;5280;42.600;23.556;2023-02-12T12:40:41;94476.56;;;2.53;83.59
10466;BME280;5280;42.600;23.556;2023-02-12T12:43:25;94481.75;;;2.53;83.26
10466;BME280;5280;42.600;23.556;2023-02-12T12:46:07;94485.34;;;2.49;85.20
10466;BME280;5280;42.600;23.556;2023-02-12T12:49:05;94488.94;;;2.45;84.23
10466;BME280;5280;42.600;23.556;2023-02-12T12:51:52;94483.19;;;2.34;85.29
10466;BME280;5280;42.600;23.556;2023-02-12T12:54:32;94483.00;;;2.42;84.83
10466;BME280;5280;42.600;23.556;2023-02-12T12:57:10;94491.66;;;2.42;85.55
10466;BME280;5280;42.600;23.556;2023-02-12T13:00:13;94484.84;;;2.38;86.62
10466;BME280;5280;42.600;23.556;2023-02-12T13:03:27;94494.75;;;2.55;84.94
10466;BME280;5280;42.600;23.556;2023-02-12T13:12:17;94487.34;;;2.69;84.38
10466;BME280;5280;42.600;23.556;2023-02-12T13:14:54;94482.91;;;2.73;84.87
10466;BME280;5280;42.600;23.556;2023-02-12T13:17:30;94491.44;;;2.78;84.52
10466;BME280;5280;42.600;23.556;2023-02-12T13:20:07;94489.72;;;2.77;83.74
10466;BME280;5280;42.600;23.556;2023-02-12T13:22:39;94508.00;;;2.77;83.36
10466;BME280;5280;42.600;23.556;2023-02-12T13:25:21;94503.81;;;2.71;84.03
10466;BME280;5280;42.600;23.556;2023-02-12T13:27:50;94507.47;;;2.66;83.54
10466;BME280;5280;42.600;23.556;2023-02-12T13:30:21;94524.25;;;2.85;83.97
10466;BME280;5280;42.600;23.556;2023-02-12T13:32:54;94437.97;;;2.35;83.29
10466;BME280;5280;42.600;23.556;2023-02-12T13:35:25;94522.75;;;2.78;84.47